Time;durP1;ratioP1;P1;durP2;ratioP2;P2;SDS_P1;SDS_P2;PMS_P1;PMS_P2;Temp;Humidity;BMP_temperature;BMP_pressure;BME280_temperature;BME280_humidity;BME280_pressure;Samples;Min_cycle;Max_cycle;Signal;HPM_P1;HPM_P2
2022/04/21 00:00:07;;;;;;;0.60;0.60;;;6.00;99.90;;;;;;4955242;28;20129;-77
2022/04/21 00:02:33;;;;;;;0.55;0.55;;;6.00;99.90;;;;;;4977408;28;20148;-76
2022/04/21 00:04:59;;;;;;;;;;;6.00;99.90;;;;;;4951925;28;20097;-78
2022/04/21 00:07:25;;;;;;;0.50;0.50;;;5.90;99.90;;;;;;4968016;28;20052;-76
2022/04/21 00:09:52;;;;;;;0.73;0.73;;;5.90;99.90;;;;;;4933414;28;20156;-77
2022/04/21 00:12:18;;;;;;;0.60;0.60;;;5.90;99.90;;;;;;4979587;28;20039;-76
2022/04/21 00:14:44;;;;;;;0.60;0.60;;;5.90;99.90;;;;;;4989713;28;20062;-76
2022/04/21 00:17:10;;;;;;;0.60;0.60;;;5.90;99.90;;;;;;4968305;28;20468;-78
2022/04/21 00:19:36;;;;;;;0.60;0.60;;;5.90;99.90;;;;;;4966025;28;20476;-79
2022/04/21 00:24:48;;;;;;;0.52;0.52;;;5.90;99.90;;;;;;4967221;28;20551;-76
2022/04/21 00:27:15;;;;;;;0.60;0.60;;;5.90;99.90;;;;;;4968855;28;20050;-77
2022/04/21 00:29:42;;;;;;;1.10;1.10;;;5.90;99.90;;;;;;4955505;28;20050;-77
2022/04/21 00:32:07;;;;;;;0.68;0.68;;;5.90;99.90;;;;;;4966770;28;20093;-76
2022/04/21 00:34:34;;;;;;;0.80;0.80;;;5.80;99.90;;;;;;4955565;28;20077;-75
2022/04/21 00:37:01;;;;;;;0.60;0.60;;;5.70;99.90;;;;;;4966872;28;20453;-76
2022/04/21 00:39:27;;;;;;;0.60;0.60;;;5.70;99.90;;;;;;4952755;28;20101;-77
2022/04/21 00:41:57;;;;;;;0.50;0.50;;;5.60;99.90;;;;;;4950914;28;20471;-77
2022/04/21 00:44:23;;;;;;;0.50;0.50;;;5.60;99.90;;;;;;4985365;28;20047;-77
2022/04/21 00:46:49;;;;;;;0.50;0.50;;;5.50;99.90;;;;;;4965529;28;20054;-78
2022/04/21 00:49:18;;;;;;;0.68;0.68;;;5.60;99.90;;;;;;4951918;28;20049;-77
2022/04/21 00:51:44;;;;;;;0.50;0.50;;;5.50;99.90;;;;;;4967156;28;20074;-78
2022/04/21 00:54:10;;;;;;;;;;;5.40;99.90;;;;;;4948760;29;20040;-78
2022/04/21 00:56:36;;;;;;;0.60;0.60;;;5.30;99.90;;;;;;4945736;28;19958;-78
2022/04/21 00:59:04;;;;;;;0.60;0.60;;;5.40;99.90;;;;;;4951441;28;20057;-78
2022/04/21 01:04:16;;;;;;;0.68;0.68;;;5.20;99.90;;;;;;4956177;28;20046;-77
2022/04/21 01:06:42;;;;;;;0.70;0.70;;;5.20;99.90;;;;;;4966934;28;20106;-77
2022/04/21 01:09:09;;;;;;;0.60;0.60;;;5.20;99.90;;;;;;4967160;28;20429;-79
2022/04/21 01:11:42;;;;;;;0.60;0.60;;;5.20;99.90;;;;;;4966125;28;20372;-78
2022/04/21 01:14:10;;;;;;;0.60;0.60;;;5.20;99.90;;;;;;4955573;28;20492;-76
2022/04/21 01:16:36;;;;;;;0.60;0.60;;;5.20;99.90;;;;;;4950234;28;20035;-78
2022/04/21 01:19:02;;;;;;;0.70;0.70;;;5.40;99.90;;;;;;4960411;28;20508;-77
2022/04/21 01:21:28;;;;;;;0.70;0.70;;;5.40;99.90;;;;;;4951296;28;20081;-77
2022/04/21 01:23:53;;;;;;;0.50;0.50;;;5.40;99.90;;;;;;4950115;28;20046;-77
2022/04/21 01:26:19;;;;;;;0.52;0.52;;;5.40;99.90;;;;;;4966110;28;20074;-78
2022/04/21 01:28:47;;;;;;;0.47;0.47;;;5.40;99.90;;;;;;4966835;28;20051;-77
2022/04/21 01:31:12;;;;;;;0.65;0.65;;;5.40;99.90;;;;;;4966376;28;20042;-79
2022/04/21 01:33:38;;;;;;;0.70;0.70;;;5.30;99.90;;;;;;4974831;28;20120;-77
2022/04/21 01:36:05;;;;;;;0.57;0.57;;;5.40;99.90;;;;;;4939165;29;20051;-80
2022/04/21 01:41:14;;;;;;;0.60;0.60;;;5.30;99.90;;;;;;4941064;28;20116;-77
2022/04/21 01:43:43;;;;;;;0.60;0.60;;;5.20;99.90;;;;;;4961878;28;20051;-77
2022/04/21 01:46:10;;;;;;;0.57;0.57;;;5.20;99.90;;;;;;4965272;28;20496;-77
2022/04/21 01:48:36;;;;;;;0.60;0.60;;;5.10;99.90;;;;;;4932895;28;20374;-77
2022/04/21 01:51:02;;;;;;;;;;;5.10;99.90;;;;;;4967095;28;20114;-78
2022/04/21 01:53:30;;;;;;;0.70;0.70;;;5.30;99.90;;;;;;4967058;28;19929;-77
2022/04/21 01:55:56;;;;;;;0.57;0.57;;;5.10;99.90;;;;;;4962851;28;20042;-78
2022/04/21 01:58:22;;;;;;;;;;;5.10;99.90;;;;;;4963634;28;20058;-77
2022/04/21 02:00:51;;;;;;;0.68;0.68;;;5.00;99.90;;;;;;4960005;28;19918;-76
2022/04/21 02:03:17;;;;;;;0.60;0.60;;;4.90;99.90;;;;;;4964039;28;20058;-77
2022/04/21 02:05:43;;;;;;;0.65;0.65;;;4.90;99.90;;;;;;4942545;28;20089;-77
2022/04/21 02:08:09;;;;;;;0.68;0.68;;;4.90;99.90;;;;;;4963664;28;20138;-76
2022/04/21 02:10:35;;;;;;;0.50;0.50;;;5.10;99.90;;;;;;4962883;28;20046;-77
2022/04/21 02:13:00;;;;;;;0.60;0.60;;;4.80;99.90;;;;;;4930713;28;20046;-77
2022/04/21 02:15:28;;;;;;;0.70;0.70;;;4.80;99.90;;;;;;4948680;28;20456;-76
2022/04/21 02:17:54;;;;;;;0.50;0.50;;;5.00;99.90;;;;;;4966206;28;20054;-76
2022/04/21 02:20:21;;;;;;;0.60;0.60;;;4.70;99.90;;;;;;4964046;28;20055;-76
2022/04/21 02:22:47;;;;;;;0.52;0.52;;;4.70;99.90;;;;;;4965571;28;20412;-77
2022/04/21 02:25:19;;;;;;;0.65;0.65;;;4.60;99.90;;;;;;4943765;28;20077;-76
2022/04/21 02:27:46;;;;;;;0.60;0.60;;;4.70;99.90;;;;;;4936776;28;20047;-77
2022/04/21 02:30:14;;;;;;;0.65;0.65;;;4.80;99.90;;;;;;4965995;28;20047;-76
2022/04/21 02:32:40;;;;;;;0.60;0.60;;;4.90;99.90;;;;;;4962093;28;20051;-77
2022/04/21 02:35:10;;;;;;;0.65;0.65;;;5.00;99.90;;;;;;4967478;28;20058;-76
2022/04/21 02:37:43;;;;;;;0.55;0.55;;;5.10;99.90;;;;;;4949509;28;20066;-77
2022/04/21 02:40:09;;;;;;;0.57;0.57;;;5.00;99.90;;;;;;4958236;28;20069;-78
2022/04/21 02:42:40;;;;;;;0.50;0.50;;;5.10;99.90;;;;;;4965488;28;20095;-78
2022/04/21 02:45:11;;;;;;;0.73;0.73;;;5.10;99.90;;;;;;4965392;28;20061;-75
2022/04/21 02:47:38;;;;;;;0.70;0.70;;;5.10;99.90;;;;;;4982324;28;20391;-77
2022/04/21 02:50:06;;;;;;;0.60;0.60;;;5.10;99.90;;;;;;4967594;28;20469;-76
2022/04/21 02:52:40;;;;;;;0.50;0.50;;;5.00;99.90;;;;;;4965511;28;20495;-77
2022/04/21 02:57:51;;;;;;;0.73;0.73;;;4.80;99.90;;;;;;4955126;28;20180;-77
2022/04/21 03:00:17;;;;;;;0.55;0.55;;;4.70;99.90;;;;;;4963755;28;20092;-76
2022/04/21 03:02:43;;;;;;;0.50;0.50;;;4.60;99.90;;;;;;4964298;28;20477;-76
2022/04/21 03:05:09;;;;;;;0.60;0.60;;;4.50;99.90;;;;;;4968956;28;20050;-77
2022/04/21 03:07:34;;;;;;;0.50;0.50;;;4.50;99.90;;;;;;4969341;28;20091;-78
2022/04/21 03:10:00;;;;;;;0.60;0.60;;;4.40;99.90;;;;;;4968419;28;20038;-76
2022/04/21 03:12:27;;;;;;;0.60;0.60;;;4.40;99.90;;;;;;4968732;28;20488;-77
2022/04/21 03:14:55;;;;;;;0.60;0.60;;;4.30;99.90;;;;;;4968984;28;20039;-76
2022/04/21 03:17:21;;;;;;;0.60;0.60;;;5.00;99.90;;;;;;4970519;28;20384;-77
2022/04/21 03:19:47;;;;;;;0.50;0.50;;;4.20;99.90;;;;;;4967192;28;20080;-79
2022/04/21 03:25:02;;;;;;;0.70;0.70;;;4.10;99.90;;;;;;4961455;28;20053;-78
2022/04/21 03:27:29;;;;;;;0.63;0.63;;;4.10;99.90;;;;;;4965408;28;20557;-75
2022/04/21 03:29:55;;;;;;;0.50;0.50;;;3.90;99.90;;;;;;4968655;28;20127;-76
2022/04/21 03:32:21;;;;;;;0.60;0.60;;;3.90;99.90;;;;;;4985312;28;20049;-77
2022/04/21 03:34:47;;;;;;;0.57;0.57;;;3.90;99.90;;;;;;4967819;28;20043;-77
2022/04/21 03:37:14;;;;;;;0.50;0.50;;;3.90;99.90;;;;;;4971259;28;20035;-77
2022/04/21 03:39:43;;;;;;;0.50;0.50;;;3.90;99.90;;;;;;4978179;28;20527;-77
2022/04/21 03:42:19;;;;;;;0.60;0.60;;;3.90;99.90;;;;;;4982820;28;20069;-77
2022/04/21 03:44:45;;;;;;;0.80;0.80;;;3.90;99.90;;;;;;4967973;28;20038;-78
2022/04/21 03:47:11;;;;;;;0.63;0.63;;;3.90;99.90;;;;;;4954101;28;20053;-76
2022/04/21 03:49:36;;;;;;;0.60;0.60;;;3.80;99.90;;;;;;4966665;28;20043;-77
2022/04/21 03:52:02;;;;;;;0.65;0.65;;;3.80;99.90;;;;;;4969596;28;20484;-77
2022/04/21 03:54:28;;;;;;;0.68;0.68;;;3.80;99.90;;;;;;4935371;28;20096;-76
2022/04/21 03:56:54;;;;;;;0.77;0.77;;;3.70;99.90;;;;;;4962561;28;20047;-78
2022/04/21 03:59:23;;;;;;;0.65;0.65;;;3.70;99.90;;;;;;4952491;28;20369;-76
2022/04/21 04:01:53;;;;;;;0.80;0.80;;;3.60;99.90;;;;;;4985879;28;20128;-77
2022/04/21 04:04:19;;;;;;;0.68;0.68;;;3.60;99.90;;;;;;4983191;28;20079;-78
2022/04/21 04:12:13;;;;;;;0.70;0.70;;;3.60;99.90;;;;;;5022638;28;20496;-77
2022/04/21 04:14:40;;;;;;;0.70;0.70;;;3.60;99.90;;;;;;4952229;28;20043;-78
2022/04/21 04:17:08;;;;;;;0.70;0.70;;;3.50;99.90;;;;;;4967485;28;20051;-78
2022/04/21 04:19:35;;;;;;;0.70;0.70;;;3.50;99.90;;;;;;4969307;28;20122;-78
2022/04/21 04:22:02;;;;;;;0.70;0.70;;;3.50;99.90;;;;;;4930813;28;20074;-77
2022/04/21 04:24:29;;;;;;;0.60;0.60;;;3.50;99.90;;;;;;4957310;28;20054;-77
2022/04/21 04:26:55;;;;;;;0.50;0.50;;;3.50;99.90;;;;;;4974661;28;20187;-76
2022/04/21 04:29:24;;;;;;;0.82;0.82;;;3.50;99.90;;;;;;4969419;28;20386;-78
2022/04/21 04:31:54;;;;;;;0.70;0.70;;;3.50;99.90;;;;;;4967044;28;20414;-77
2022/04/21 04:34:20;;;;;;;0.68;0.68;;;3.50;99.90;;;;;;4969096;28;20126;-76
2022/04/21 04:36:47;;;;;;;0.70;0.70;;;3.40;99.90;;;;;;4950153;28;20477;-75
2022/04/21 04:39:15;;;;;;;0.50;0.50;;;3.50;99.90;;;;;;4968511;28;20487;-77
2022/04/21 04:44:27;;;;;;;0.70;0.70;;;3.50;99.90;;;;;;4965327;28;20055;-78
2022/04/21 04:46:53;;;;;;;0.55;0.55;;;3.80;99.90;;;;;;4967215;28;20042;-76
2022/04/21 04:49:20;;;;;;;0.70;0.70;;;3.70;99.90;;;;;;4968214;28;20515;-78
2022/04/21 04:51:45;;;;;;;0.60;0.60;;;3.60;99.90;;;;;;4966236;28;20559;-76
2022/04/21 04:54:13;;;;;;;0.60;0.60;;;3.60;99.90;;;;;;4962123;28;20122;-77
2022/04/21 04:56:40;;;;;;;0.80;0.80;;;3.60;99.90;;;;;;4966291;28;20502;-76
2022/04/21 04:59:06;;;;;;;0.63;0.63;;;3.60;99.90;;;;;;4964992;28;20149;-77
2022/04/21 05:01:40;;;;;;;0.70;0.70;;;3.70;99.90;;;;;;4942606;28;20126;-77
2022/04/21 05:04:17;;;;;;;0.70;0.70;;;3.70;99.90;;;;;;4965108;28;20046;-77
2022/04/21 05:06:51;;;;;;;1.50;1.33;;;3.70;99.90;;;;;;4963885;28;20133;-76
2022/04/21 05:09:18;;;;;;;0.68;0.68;;;3.80;99.90;;;;;;4962773;28;20057;-77
2022/04/21 05:11:46;;;;;;;0.70;0.70;;;3.90;99.90;;;;;;4958372;28;20764;-77
2022/04/21 05:14:13;;;;;;;0.70;0.70;;;4.00;99.90;;;;;;4963505;28;20054;-76
2022/04/21 05:16:42;;;;;;;0.70;0.70;;;4.00;99.90;;;;;;4965859;28;20392;-77
2022/04/21 05:19:09;;;;;;;0.60;0.60;;;4.10;99.90;;;;;;4967710;28;20039;-77
2022/04/21 05:21:36;;;;;;;1.35;1.23;;;4.10;99.90;;;;;;4952516;28;20043;-76
2022/04/21 05:24:04;;;;;;;0.70;0.70;;;4.20;99.90;;;;;;4951204;28;20059;-76
2022/04/21 05:26:31;;;;;;;0.70;0.70;;;4.30;99.90;;;;;;4983767;28;20485;-75
2022/04/21 05:28:59;;;;;;;0.70;0.70;;;4.30;99.90;;;;;;4965132;28;20130;-76
2022/04/21 05:31:26;;;;;;;0.60;0.60;;;4.40;99.90;;;;;;4950974;28;20507;-78
2022/04/21 05:33:53;;;;;;;0.63;0.63;;;4.50;99.90;;;;;;4951423;28;20077;-75
2022/04/21 05:36:19;;;;;;;0.88;0.88;;;4.60;99.90;;;;;;4967199;28;20046;-77
2022/04/21 05:38:46;;;;;;;;;;;4.60;99.90;;;;;;4962701;28;20373;-75
2022/04/21 05:41:13;;;;;;;0.70;0.70;;;4.70;99.90;;;;;;4963701;28;19926;-77
2022/04/21 05:43:45;;;;;;;0.68;0.68;;;4.80;99.90;;;;;;4960953;28;20457;-77
2022/04/21 05:46:12;;;;;;;0.70;0.70;;;4.90;99.90;;;;;;4962272;28;20480;-76
2022/04/21 05:48:39;;;;;;;0.60;0.60;;;5.00;99.90;;;;;;4964740;28;20051;-77
2022/04/21 05:51:06;;;;;;;0.50;0.50;;;5.10;99.90;;;;;;4953469;28;20050;-76
2022/04/21 05:53:36;;;;;;;0.50;0.50;;;5.20;99.90;;;;;;4961878;28;20518;-77
2022/04/21 05:56:08;;;;;;;0.40;0.40;;;5.30;99.90;;;;;;4932848;28;20043;-77
2022/04/21 05:58:36;;;;;;;0.50;0.50;;;5.40;99.90;;;;;;4960737;28;20035;-77
2022/04/21 06:01:10;;;;;;;0.50;0.50;;;5.50;99.90;;;;;;4964076;28;20057;-77
2022/04/21 06:03:37;;;;;;;0.52;0.52;;;5.60;99.90;;;;;;4957307;28;20047;-76
2022/04/21 06:06:04;;;;;;;0.50;0.50;;;5.80;99.90;;;;;;4958712;28;20051;-78
2022/04/21 06:08:30;;;;;;;0.65;0.65;;;5.90;99.90;;;;;;4946027;28;20051;-79
2022/04/21 06:10:59;;;;;;;0.70;0.70;;;6.00;99.90;;;;;;4950578;28;20104;-76
2022/04/21 06:13:25;;;;;;;0.70;0.70;;;6.20;99.90;;;;;;4937707;28;20042;-78
2022/04/21 06:15:51;;;;;;;0.47;0.47;;;6.30;99.90;;;;;;4960548;28;20047;-77
2022/04/21 06:18:18;;;;;;;0.40;0.40;;;6.50;99.90;;;;;;4986355;28;20490;-78
2022/04/21 06:20:43;;;;;;;0.60;0.60;;;6.70;99.90;;;;;;4979204;28;20455;-77
2022/04/21 06:23:09;;;;;;;0.88;0.88;;;6.80;99.90;;;;;;4968729;28;20042;-75
2022/04/21 06:25:42;;;;;;;0.60;0.60;;;6.90;99.90;;;;;;4963150;28;20051;-77
2022/04/21 06:28:10;;;;;;;0.50;0.50;;;7.10;99.90;;;;;;4944427;28;20074;-77
2022/04/21 06:30:36;;;;;;;0.52;0.52;;;7.20;99.90;;;;;;4958673;28;20047;-78
2022/04/21 06:33:02;;;;;;;0.60;0.60;;;7.40;99.90;;;;;;4977524;28;20236;-78
2022/04/21 06:35:29;;;;;;;0.40;0.40;;;7.50;99.90;;;;;;4971474;28;20045;-76
2022/04/21 06:37:56;;;;;;;0.43;0.43;;;7.70;99.90;;;;;;4962977;28;20038;-76
2022/04/21 06:40:22;;;;;;;0.40;0.40;;;7.90;99.90;;;;;;4954239;28;20055;-76
2022/04/21 06:42:48;;;;;;;0.40;0.40;;;8.00;99.90;;;;;;4951764;28;20492;-76
2022/04/21 06:48:01;;;;;;;0.40;0.40;;;8.20;99.90;;;;;;4966578;28;20051;-78
2022/04/21 06:50:28;;;;;;;1.10;1.10;;;8.40;99.90;;;;;;4977651;28;20366;-78
2022/04/21 06:52:54;;;;;;;0.40;0.40;;;8.50;99.90;;;;;;4975754;28;20110;-76
2022/04/21 06:55:19;;;;;;;0.50;0.50;;;8.70;99.90;;;;;;4961484;28;20544;-76
2022/04/21 06:57:45;;;;;;;0.22;0.22;;;8.80;99.90;;;;;;4945750;28;20062;-77
2022/04/21 07:00:11;;;;;;;0.40;0.40;;;9.00;99.90;;;;;;4964236;28;20133;-80
2022/04/21 07:02:38;;;;;;;0.40;0.40;;;9.10;99.90;;;;;;4966345;28;20086;-80
2022/04/21 07:05:09;;;;;;;;;;;9.20;99.90;;;;;;5032271;28;20066;-79
2022/04/21 07:07:35;;;;;;;0.47;0.47;;;9.40;99.90;;;;;;4955576;28;19966;-78
2022/04/21 07:10:01;;;;;;;0.40;0.40;;;9.50;99.90;;;;;;5029991;28;20085;-78
2022/04/21 07:12:29;;;;;;;0.38;0.38;;;9.70;99.90;;;;;;4966077;28;20042;-79
2022/04/21 07:15:06;;;;;;;0.60;0.60;;;9.80;99.90;;;;;;4966506;28;20051;-78
2022/04/21 07:17:33;;;;;;;0.60;0.60;;;10.00;99.90;;;;;;4970408;28;20118;-76
2022/04/21 07:20:00;;;;;;;0.32;0.32;;;10.10;99.90;;;;;;4960774;28;20042;-77
2022/04/21 07:22:26;;;;;;;0.30;0.30;;;10.20;99.90;;;;;;4964781;28;20038;-78
2022/04/21 07:24:53;;;;;;;0.50;0.50;;;10.30;99.90;;;;;;5028823;28;20058;-79
2022/04/21 07:27:18;;;;;;;0.45;0.45;;;10.40;99.90;;;;;;4963529;28;20051;-77
2022/04/21 07:29:44;;;;;;;0.32;0.32;;;10.50;99.90;;;;;;4960077;28;20043;-79
2022/04/21 07:32:10;;;;;;;0.50;0.50;;;10.70;99.90;;;;;;4961778;28;20038;-77
2022/04/21 07:34:37;;;;;;;0.32;0.32;;;10.80;99.90;;;;;;4963694;28;20492;-77
2022/04/21 07:37:04;;;;;;;0.40;0.40;;;10.90;99.90;;;;;;4974783;28;20146;-76
2022/04/21 07:39:30;;;;;;;0.30;0.30;;;11.00;99.90;;;;;;4969748;28;20057;-78
2022/04/21 07:41:57;;;;;;;0.40;0.40;;;11.10;99.90;;;;;;4977936;28;20043;-77
2022/04/21 07:44:23;;;;;;;0.55;0.55;;;11.20;99.90;;;;;;4954068;28;20055;-79
2022/04/21 07:46:49;;;;;;;0.50;0.50;;;11.30;99.90;;;;;;4981406;28;20051;-76
2022/04/21 07:54:46;;;;;;;0.40;0.40;;;11.50;99.90;;;;;;4952900;28;20051;-78
2022/04/21 07:57:11;;;;;;;0.40;0.40;;;11.70;99.90;;;;;;4969849;28;20038;-76
2022/04/21 07:59:37;;;;;;;0.25;0.25;;;11.80;99.90;;;;;;4987076;28;20046;-76
2022/04/21 08:02:09;;;;;;;0.32;0.32;;;11.90;99.90;;;;;;4951298;28;20063;-78
2022/04/21 08:04:38;;;;;;;1.13;1.13;;;12.00;99.90;;;;;;4967848;28;20565;-77
2022/04/21 08:07:05;;;;;;;0.50;0.50;;;12.10;99.90;;;;;;4972417;28;20143;-78
2022/04/21 08:09:31;;;;;;;0.40;0.40;;;12.10;99.90;;;;;;4962138;28;20047;-78
2022/04/21 08:11:58;;;;;;;0.40;0.40;;;12.20;99.90;;;;;;4964722;28;20045;-77
2022/04/21 08:14:24;;;;;;;0.30;0.30;;;12.20;99.90;;;;;;4966426;28;20126;-78
2022/04/21 08:16:53;;;;;;;0.30;0.30;;;12.30;99.90;;;;;;4976000;28;20062;-80
2022/04/21 08:19:21;;;;;;;0.73;0.73;;;12.40;99.90;;;;;;4953059;28;20055;-76
2022/04/21 08:21:50;;;;;;;0.45;0.45;;;12.40;99.90;;;;;;4972629;28;20046;-79
2022/04/21 08:32:41;;;;;;;0.40;0.40;;;12.70;99.90;;;;;;4966638;28;20047;-77
2022/04/21 08:35:09;;;;;;;0.30;0.30;;;12.80;99.90;;;;;;5022183;28;20113;-77
2022/04/21 08:37:36;;;;;;;0.30;0.30;;;12.80;99.90;;;;;;4949727;28;20476;-78
2022/04/21 08:40:03;;;;;;;0.20;0.20;;;12.90;99.90;;;;;;4968371;28;20047;-76
2022/04/21 08:42:39;;;;;;;0.30;0.30;;;13.00;99.90;;;;;;4965908;28;20049;-76
2022/04/21 08:45:07;;;;;;;0.50;0.50;;;13.00;99.90;;;;;;4971445;28;20420;-77
2022/04/21 08:47:33;;;;;;;0.45;0.45;;;13.10;99.90;;;;;;4967039;28;20096;-76
2022/04/21 08:50:19;;;;;;;0.40;0.40;;;13.20;99.90;;;;;;4964168;28;20465;-76
2022/04/21 08:52:45;;;;;;;0.30;0.30;;;13.20;99.90;;;;;;4956703;28;20043;-78
2022/04/21 08:55:11;;;;;;;0.38;0.38;;;13.20;99.90;;;;;;4959416;28;20782;-76
2022/04/21 08:57:38;;;;;;;;;;;13.30;99.90;;;;;;4948542;28;20381;-81
2022/04/21 09:00:06;;;;;;;0.40;0.40;;;13.40;99.90;;;;;;4957638;28;19925;-78
2022/04/21 09:02:41;;;;;;;0.30;0.30;;;13.50;99.90;;;;;;4918348;29;457350;-77
2022/04/21 09:05:08;;;;;;;0.30;0.30;;;13.50;99.90;;;;;;4959549;28;20062;-80
2022/04/21 09:07:48;;;;;;;0.30;0.30;;;13.60;99.90;;;;;;4957190;28;20054;-79
2022/04/21 09:10:15;;;;;;;0.40;0.40;;;13.70;99.90;;;;;;4966706;28;20093;-78
2022/04/21 09:12:56;;;;;;;0.30;0.30;;;13.80;99.90;;;;;;4984480;28;20196;-81
2022/04/21 09:15:45;;;;;;;0.30;0.30;;;13.90;99.90;;;;;;4969182;28;20047;-79
2022/04/21 09:18:15;;;;;;;0.30;0.30;;;14.00;99.90;;;;;;4967781;28;20061;-80
2022/04/21 09:20:41;;;;;;;0.40;0.40;;;14.00;99.90;;;;;;4951607;28;20614;-79
2022/04/21 09:23:12;;;;;;;0.28;0.28;;;14.10;99.90;;;;;;4959194;28;20039;-79
2022/04/21 09:25:49;;;;;;;0.50;0.50;;;14.10;99.90;;;;;;4946767;28;20087;-82
2022/04/21 09:28:33;;;;;;;0.30;0.30;;;14.10;99.90;;;;;;4964573;28;20078;-78
2022/04/21 09:31:02;;;;;;;0.63;0.63;;;14.10;99.90;;;;;;4958786;28;20065;-80
2022/04/21 09:33:30;;;;;;;1.20;0.60;;;14.20;99.90;;;;;;4949392;29;20126;-79
2022/04/21 09:35:57;;;;;;;0.28;0.28;;;14.20;99.90;;;;;;4965221;28;20512;-81
2022/04/21 09:38:28;;;;;;;0.30;0.30;;;14.30;99.90;;;;;;4945793;28;20061;-78
2022/04/21 09:40:54;;;;;;;0.40;0.40;;;14.40;99.90;;;;;;4952371;28;20101;-79
2022/04/21 09:43:32;;;;;;;0.28;0.28;;;14.50;99.90;;;;;;4958592;28;20052;-79
2022/04/21 09:46:15;;;;;;;0.25;0.25;;;14.60;99.90;;;;;;4967496;28;20073;-77
2022/04/21 09:48:42;;;;;;;0.30;0.30;;;14.60;99.90;;;;;;4966328;28;20130;-78
2022/04/21 09:51:17;;;;;;;0.77;0.77;;;14.60;99.90;;;;;;4987778;28;20039;-78
2022/04/21 09:53:50;;;;;;;0.30;0.30;;;14.70;99.90;;;;;;4954946;28;20083;-77
2022/04/21 09:56:16;;;;;;;0.22;0.22;;;14.70;99.90;;;;;;4971505;28;20039;-81
2022/04/21 09:58:43;;;;;;;0.20;0.20;;;14.70;99.90;;;;;;4971062;28;20159;-79
2022/04/21 10:01:19;;;;;;;0.35;0.35;;;14.80;99.90;;;;;;4973907;28;20049;-77
2022/04/21 10:03:46;;;;;;;0.60;0.60;;;14.90;99.90;;;;;;4957539;28;20067;-78
2022/04/21 10:06:20;;;;;;;0.30;0.30;;;14.90;99.90;;;;;;4965177;28;20043;-80
2022/04/21 10:08:50;;;;;;;0.40;0.40;;;14.90;99.70;;;;;;4996032;28;20041;-80
2022/04/21 10:11:27;;;;;;;0.57;0.57;;;14.90;99.00;;;;;;4945187;28;20529;-80
2022/04/21 10:13:58;;;;;;;0.30;0.30;;;14.90;99.90;;;;;;4954968;28;20113;-78
2022/04/21 10:16:28;;;;;;;0.30;0.30;;;15.00;99.90;;;;;;4969798;28;20096;-79
2022/04/21 10:18:59;;;;;;;0.47;0.47;;;15.00;98.00;;;;;;4948026;29;20066;-77
2022/04/21 10:21:28;;;;;;;0.30;0.30;;;15.00;99.60;;;;;;4939216;28;20035;-81
2022/04/21 10:23:55;;;;;;;0.93;0.93;;;15.10;99.50;;;;;;4971460;28;20051;-78
2022/04/21 10:26:37;;;;;;;0.35;0.35;;;15.20;98.90;;;;;;4967858;28;20364;-80
2022/04/21 10:29:17;;;;;;;0.30;0.30;;;15.20;97.40;;;;;;4971688;28;20189;-79
2022/04/21 10:32:00;;;;;;;1.05;1.05;;;15.30;98.30;;;;;;4987074;28;20049;-78
2022/04/21 10:34:40;;;;;;;0.30;0.30;;;15.30;97.90;;;;;;4971494;28;20364;-77
2022/04/21 10:37:24;;;;;;;0.30;0.30;;;15.30;96.10;;;;;;4954900;28;20463;-81
2022/04/21 10:40:07;;;;;;;0.20;0.20;;;15.40;98.10;;;;;;4972267;28;20042;-79
2022/04/21 10:42:55;;;;;;;0.40;0.40;;;15.50;98.10;;;;;;4960058;28;20045;-77
2022/04/21 10:45:26;;;;;;;0.30;0.30;;;15.70;98.70;;;;;;5010251;28;20072;-79
2022/04/21 10:48:08;;;;;;;0.40;0.40;;;15.90;98.70;;;;;;4972300;28;20453;-80
2022/04/21 10:50:36;;;;;;;0.85;0.85;;;16.00;98.10;;;;;;4971237;28;20153;-81
2022/04/21 10:58:52;;;;;;;0.30;0.30;;;16.20;97.00;;;;;;4967217;28;20131;-81
2022/04/21 11:01:21;;;;;;;0.30;0.30;;;16.20;93.80;;;;;;4971251;28;20031;-80
2022/04/21 11:04:05;;;;;;;0.30;0.30;;;16.10;93.60;;;;;;4977186;28;20074;-78
2022/04/21 11:06:42;;;;;;;0.40;0.40;;;16.10;95.00;;;;;;4961373;28;20043;-80
2022/04/21 11:09:08;;;;;;;0.43;0.40;;;16.10;93.60;;;;;;4963376;28;20054;-81
2022/04/21 11:11:46;;;;;;;0.25;0.25;;;16.00;93.40;;;;;;4967314;28;20100;-80
2022/04/21 11:14:32;;;;;;;0.35;0.35;;;16.10;95.00;;;;;;4970319;28;20065;-79
2022/04/21 11:17:00;;;;;;;0.30;0.30;;;16.20;94.50;;;;;;4967122;28;20050;-79
2022/04/21 11:19:48;;;;;;;0.30;0.30;;;16.40;95.10;;;;;;4951621;28;20043;-80
2022/04/21 11:22:33;;;;;;;0.30;0.30;;;16.60;94.50;;;;;;4970091;28;20047;-76
2022/04/21 11:25:03;;;;;;;0.30;0.30;;;16.80;92.00;;;;;;4967373;28;20046;-75
2022/04/21 11:27:31;;;;;;;0.43;0.43;;;16.70;91.30;;;;;;4970551;28;20492;-79
2022/04/21 11:30:07;;;;;;;0.38;0.38;;;16.80;93.70;;;;;;4955084;28;20457;-79
2022/04/21 11:32:33;;;;;;;0.30;0.30;;;16.90;91.80;;;;;;4966906;28;20043;-79
2022/04/21 11:35:09;;;;;;;0.40;0.40;;;17.00;93.40;;;;;;4947637;28;20043;-76
2022/04/21 11:38:06;;;;;;;1.02;0.45;;;17.00;90.60;;;;;;4967974;28;20049;-80
2022/04/21 11:40:33;;;;;;;0.98;0.73;;;16.80;90.80;;;;;;4964756;28;20535;-81
2022/04/21 11:43:18;;;;;;;0.40;0.40;;;16.80;91.70;;;;;;4954226;28;20054;-82
2022/04/21 11:46:02;;;;;;;0.30;0.30;;;16.90;93.00;;;;;;4968106;28;20046;-79
2022/04/21 11:48:34;;;;;;;0.30;0.30;;;17.00;91.60;;;;;;4966647;28;20100;-79
2022/04/21 11:51:00;;;;;;;0.20;0.20;;;17.10;91.80;;;;;;4953563;28;20103;-79
2022/04/21 11:53:36;;;;;;;0.20;0.20;;;17.10;92.20;;;;;;4963575;28;20130;-76
2022/04/21 11:56:03;;;;;;;0.20;0.20;;;17.20;89.30;;;;;;4967788;28;20034;-81
2022/04/21 11:58:30;;;;;;;0.40;0.40;;;17.00;87.30;;;;;;4950962;28;20058;-78
2022/04/21 12:06:40;;;;;;;0.35;0.35;;;17.00;90.50;;;;;;4967163;28;20125;-81
2022/04/21 12:09:13;;;;;;;0.47;0.47;;;17.10;91.90;;;;;;4969386;28;20100;-75
2022/04/21 12:11:40;;;;;;;0.40;0.40;;;17.40;91.20;;;;;;4968764;28;20058;-78
2022/04/21 12:14:06;;;;;;;0.40;0.40;;;17.60;85.10;;;;;;4970274;28;20046;-78
2022/04/21 12:16:42;;;;;;;0.47;0.47;;;17.70;88.20;;;;;;4948355;28;20108;-81
2022/04/21 12:19:18;;;;;;;0.30;0.30;;;17.80;89.00;;;;;;4970699;28;20046;-80
2022/04/21 12:22:08;;;;;;;0.60;0.60;;;17.90;91.00;;;;;;4952161;28;20054;-79
2022/04/21 12:24:54;;;;;;;0.55;0.55;;;17.90;84.00;;;;;;4957907;28;20054;-78
2022/04/21 12:27:29;;;;;;;0.30;0.30;;;17.90;86.10;;;;;;4962688;28;20446;-77
2022/04/21 12:30:06;;;;;;;0.40;0.40;;;17.80;84.50;;;;;;4973037;28;20667;-79
2022/04/21 12:32:36;;;;;;;0.30;0.30;;;17.80;88.20;;;;;;4971419;28;20187;-77
2022/04/21 12:35:10;;;;;;;0.30;0.30;;;18.00;86.70;;;;;;4953118;28;20113;-77
2022/04/21 12:37:41;;;;;;;0.20;0.20;;;18.20;89.10;;;;;;4952235;28;20043;-77
2022/04/21 12:40:09;;;;;;;0.40;0.40;;;18.30;86.40;;;;;;4969385;28;20484;-75
2022/04/21 12:42:36;;;;;;;0.25;0.25;;;18.20;86.60;;;;;;4971587;28;20085;-79
2022/04/21 12:45:03;;;;;;;0.40;0.30;;;18.10;84.10;;;;;;4970257;28;20091;-77
2022/04/21 12:47:29;;;;;;;0.22;0.22;;;18.00;83.60;;;;;;4960006;28;20070;-77
2022/04/21 12:49:55;;;;;;;;;;;18.10;87.70;;;;;;4969447;28;20377;-79
2022/04/21 12:52:28;;;;;;;0.43;0.43;;;18.40;88.20;;;;;;4968621;28;19922;-75
2022/04/21 12:54:54;;;;;;;0.32;0.32;;;18.80;82.70;;;;;;4967004;28;20043;-78
2022/04/21 12:57:19;;;;;;;;;;;18.60;88.50;;;;;;4967650;28;20043;-75
2022/04/21 12:59:46;;;;;;;1.55;1.20;;;18.70;85.00;;;;;;4965705;28;19918;-76
2022/04/21 13:02:13;;;;;;;0.65;0.65;;;18.70;86.00;;;;;;4969016;28;20065;-78
2022/04/21 13:04:40;;;;;;;0.75;0.75;;;18.70;84.50;;;;;;4967992;28;20413;-76
2022/04/21 13:07:08;;;;;;;0.30;0.30;;;18.60;84.00;;;;;;4968475;28;20084;-78
2022/04/21 13:09:33;;;;;;;0.38;0.38;;;18.60;85.60;;;;;;4980332;28;20047;-77
2022/04/21 13:11:59;;;;;;;0.30;0.30;;;18.50;86.10;;;;;;4965740;28;20049;-76
2022/04/21 13:14:25;;;;;;;0.95;0.93;;;18.70;87.40;;;;;;4951758;28;20047;-75
2022/04/21 13:16:50;;;;;;;0.40;0.40;;;18.60;85.00;;;;;;4968202;28;20035;-78
2022/04/21 13:19:16;;;;;;;;;;;18.40;81.50;;;;;;4971944;28;20039;-80
2022/04/21 13:21:58;;;;;;;0.28;0.28;;;18.50;84.10;;;;;;4966911;28;19922;-80
2022/04/21 13:24:26;;;;;;;1.17;0.82;;;18.70;85.70;;;;;;4964509;28;20030;-76
2022/04/21 13:26:52;;;;;;;0.50;0.45;;;18.70;83.90;;;;;;4932270;28;20093;-78
2022/04/21 13:29:19;;;;;;;2.00;1.10;;;18.60;84.40;;;;;;4969711;28;20050;-76
2022/04/21 13:34:29;;;;;;;0.30;0.30;;;18.70;86.10;;;;;;4966900;28;20491;-77
2022/04/21 13:36:55;;;;;;;0.40;0.40;;;18.60;84.70;;;;;;4962278;28;20039;-76
2022/04/21 13:39:21;;;;;;;0.30;0.30;;;18.40;86.20;;;;;;4964547;28;20058;-76
2022/04/21 13:41:48;;;;;;;1.00;0.95;;;18.30;88.80;;;;;;4954588;28;20443;-77
2022/04/21 13:44:14;;;;;;;5.60;1.45;;;18.10;85.80;;;;;;4981068;28;20502;-77
2022/04/21 13:46:41;;;;;;;0.50;0.50;;;17.80;86.20;;;;;;4964215;28;20062;-78
2022/04/21 13:49:07;;;;;;;0.47;0.47;;;17.80;86.00;;;;;;4976948;28;20435;-76
2022/04/21 13:51:34;;;;;;;0.20;0.20;;;18.00;88.30;;;;;;4951216;28;20050;-78
2022/04/21 13:54:00;;;;;;;0.30;0.30;;;18.50;87.00;;;;;;4950843;28;20050;-76
2022/04/21 13:56:26;;;;;;;0.25;0.25;;;19.00;85.20;;;;;;4940912;28;20047;-77